Aviation Digital Data Service (ADDS)

Output produced by METARs form (0521 UTC 16 December 2018)
found at http://aviationweather.gov/metar/data/
 
KCWA 160520Z 1606/1706 18005KT P6SM SCT250 
     FM161000 22005KT P6SM SCT250 
     FM161400 27006KT P6SM SKC 
     FM162200 29009G16KT P6SM SKC
       
KATW 160520Z 1606/1706 18003KT 5SM BR SKC 
     FM160800 20004KT 2SM BR SCT005 
     FM161200 21005KT 4SM BR SCT006 
     FM161300 23006KT P6SM SCT010 
     FM161600 27008KT P6SM SKC
       
KGRB 160520Z 1606/1706 18003KT 5SM BR SKC 
     FM160800 20004KT 2SM BR SCT005 
     FM161200 21005KT 4SM BR SCT006 
     FM161300 23006KT P6SM SCT010 
     FM161600 27008KT P6SM SKC
       
KMSN 160401Z 1604/1624 00000KT 5SM BR SKC 
     FM161000 22003KT 4SM BR SKC 
     FM161400 23005KT P6SM FEW230 
     FM162300 29008KT P6SM FEW240
       
KMKE 160401Z 1604/1706 02005KT P6SM SKC 
     TEMPO 1604/1607 5SM BR 
     FM160700 00000KT 5SM BR FEW150 
     FM161400 24005KT P6SM FEW210 
     FM170400 30010KT P6SM FEW220